This is the latest recevied weather packets stored in our database for station/object K5NWZ. If no packets are shown the sender has not sent any weather packets the latest 10 day(s).
| Time | Temp. | Humidity | Pressure | Rain* | Wind** | Luminosity | Snow |
|---|---|---|---|---|---|---|---|
| 1787672460 | 23.33° C | 46% | 1035.9 hPa | 0 mm | - | 312 W/m² | - |
| 1787672159 | 22.78° C | 49% | 1036 hPa | 0 mm | - | 394 W/m² | - |
| 1787671854 | 23.89° C | 47% | 1036 hPa | 0 mm | - | 268 W/m² | - |
| 1787671549 | 23.33° C | 47% | 1035.9 hPa | 0 mm | - | 566 W/m² | - |
| 1787671239 | 22.78° C | 49% | 1035.9 hPa | 0 mm | - | 254 W/m² | - |
| 1787670939 | 22.78° C | 50% | 1036 hPa | 0 mm | - | 202 W/m² | - |
| 1787670634 | 23.33° C | 48% | 1035.7 hPa | 0 mm | - | 362 W/m² | - |
| 1787670329 | 22.78° C | 50% | 1035.5 hPa | 0 mm | - | 490 W/m² | - |
| 1787670024 | 22.22° C | 51% | 1035.8 hPa | 0 mm | - | 231 W/m² | - |
| 1787669723 | 21.67° C | 53% | 1035.9 hPa | 0 mm | - | 194 W/m² | - |
| 1787669418 | 22.22° C | 51% | 1035.9 hPa | 0 mm | - | 166 W/m² | - |
| 1787669114 | 21.67° C | 54% | 1036 hPa | 0 mm | - | 181 W/m² | - |
| 1787668810 | 21.11° C | 57% | 1035.9 hPa | 0 mm | - | 234 W/m² | - |
| 1787668506 | 20.56° C | 59% | 1035.7 hPa | 0 mm | - | 167 W/m² | - |
| 1787668201 | 20.56° C | 61% | 1035.8 hPa | 0 mm | - | 144 W/m² | - |
| 1787667896 | 20.56° C | 61% | 1035.8 hPa | 0 mm | - | 120 W/m² | - |
| 1787667591 | 20.56° C | 61% | 1035.8 hPa | 0 mm | - | 93 W/m² | - |
| 1787667287 | 20.56° C | 60% | 1035.7 hPa | 0 mm | - | 92 W/m² | - |
| 1787666987 | 20.56° C | 63% | 1035.5 hPa | 0 mm | - | 94 W/m² | - |
| 1787666683 | 20.56° C | 61% | 1035.4 hPa | 0 mm | - | 96 W/m² | - |
| 1787666382 | 20.56° C | 59% | 1035.4 hPa | 0 mm | - | 91 W/m² | - |
| 1787666078 | 20° C | 62% | 1035.5 hPa | 0 mm | - | 100 W/m² | - |
| 1787665772 | 20° C | 61% | 1035.3 hPa | 0 mm | - | 105 W/m² | - |
| 1787665467 | 19.44° C | 64% | 1035.2 hPa | 0 mm | - | 100 W/m² | - |
| 1787665167 | 19.44° C | 66% | 1035.3 hPa | 0 mm | - | 87 W/m² | - |
* Rain latest hour (hover to see other rain measurements)
** Current wind speed in m/s (hover to see current wind gust speed)